Time;durP1;ratioP1;P1;durP2;ratioP2;P2;SDS_P1;SDS_P2;PMS_P1;PMS_P2;Temp;Humidity;BMP_temperature;BMP_pressure;BME280_temperature;BME280_humidity;BME280_pressure;Samples;Min_cycle;Max_cycle;Signal;HPM_P1;HPM_P2
2022/04/17 00:01:03;;;;;;;1.33;0.80;;;7.00;58.60;;;;;;5028150;28;20037;-76
2022/04/17 00:03:30;;;;;;;0.90;0.80;;;7.00;58.70;;;;;;5027866;28;20470;-77
2022/04/17 00:05:56;;;;;;;1.23;0.77;;;7.00;58.70;;;;;;5026772;28;20041;-76
2022/04/17 00:08:23;;;;;;;1.13;0.88;;;6.90;59.00;;;;;;5039761;28;20033;-77
2022/04/17 00:10:50;;;;;;;3.80;0.80;;;6.90;59.30;;;;;;5017084;28;20056;-76
2022/04/17 00:13:16;;;;;;;4.65;1.10;;;6.80;59.70;;;;;;5035886;28;20555;-76
2022/04/17 00:15:43;;;;;;;2.17;0.77;;;6.70;60.10;;;;;;5016196;28;20395;-76
2022/04/17 00:18:09;;;;;;;2.88;1.13;;;6.60;60.40;;;;;;5016290;28;20049;-76
2022/04/17 00:20:37;;;;;;;1.33;0.85;;;6.50;60.80;;;;;;5014671;28;20060;-76
2022/04/17 00:23:03;;;;;;;0.63;0.63;;;6.60;60.70;;;;;;5038759;28;20033;-75
2022/04/17 00:25:30;;;;;;;1.80;0.93;;;6.60;60.60;;;;;;5035882;28;20029;-76
2022/04/17 00:27:56;;;;;;;2.05;1.00;;;6.60;60.50;;;;;;5034626;28;20475;-76
2022/04/17 00:30:22;;;;;;;1.38;0.73;;;6.80;60.10;;;;;;5030365;28;20037;-76
2022/04/17 00:32:48;;;;;;;1.25;0.98;;;6.70;60.00;;;;;;5016542;28;20052;-77
2022/04/17 00:35:14;;;;;;;1.70;1.10;;;6.80;59.80;;;;;;5033226;28;20029;-76
2022/04/17 00:37:43;;;;;;;1.30;0.77;;;6.70;60.00;;;;;;5017112;28;20113;-76
2022/04/17 00:40:09;;;;;;;0.98;0.80;;;6.70;60.30;;;;;;5016318;28;20041;-77
2022/04/17 00:42:35;;;;;;;0.98;0.85;;;6.50;60.80;;;;;;5011000;28;20030;-77
2022/04/17 00:45:02;;;;;;;0.60;0.60;;;6.40;61.20;;;;;;5033772;28;20040;-76
2022/04/17 00:47:29;;;;;;;1.95;1.13;;;6.20;61.90;;;;;;5014568;28;20041;-77
2022/04/17 00:49:55;;;;;;;0.70;0.70;;;6.10;62.60;;;;;;5015632;28;20044;-76
2022/04/17 00:52:21;;;;;;;1.95;0.90;;;5.90;63.20;;;;;;5033667;28;20033;-76
2022/04/17 00:54:49;;;;;;;0.73;0.73;;;5.80;63.60;;;;;;5040050;28;20037;-76
2022/04/17 00:57:16;;;;;;;2.88;0.90;;;5.80;64.10;;;;;;5034723;28;20037;-76
2022/04/17 00:59:48;;;;;;;2.90;0.85;;;5.60;65.40;;;;;;5028678;28;20033;-76
2022/04/17 01:02:15;;;;;;;0.85;0.60;;;5.50;67.50;;;;;;5016420;28;20041;-76
2022/04/17 01:04:43;;;;;;;1.42;0.82;;;5.50;68.90;;;;;;5033336;28;20394;-76
2022/04/17 01:07:12;;;;;;;1.55;1.00;;;5.40;70.40;;;;;;5033392;28;20041;-76
2022/04/17 01:09:39;;;;;;;1.92;1.08;;;5.30;71.80;;;;;;5019017;28;20038;-76
2022/04/17 01:12:08;;;;;;;1.60;1.10;;;5.20;73.50;;;;;;5035021;28;20386;-76
2022/04/17 01:14:39;;;;;;;1.02;0.82;;;5.10;75.90;;;;;;5033439;28;20396;-77
2022/04/17 01:17:07;;;;;;;1.70;0.68;;;5.00;76.40;;;;;;5033904;28;20091;-77
2022/04/17 01:19:40;;;;;;;0.98;0.93;;;4.90;77.60;;;;;;5016743;28;20038;-77
2022/04/17 01:22:09;;;;;;;3.97;1.40;;;4.80;80.00;;;;;;5030228;28;20036;-77
2022/04/17 01:27:21;;;;;;;1.48;1.25;;;4.70;81.00;;;;;;5014508;28;20038;-77
2022/04/17 01:29:50;;;;;;;1.83;1.05;;;4.70;83.30;;;;;;5017073;28;20045;-76
2022/04/17 01:32:17;;;;;;;1.58;1.30;;;4.70;84.10;;;;;;5017587;28;20471;-76
2022/04/17 01:34:43;;;;;;;2.03;1.10;;;4.60;85.00;;;;;;5027832;28;20038;-75
2022/04/17 01:37:10;;;;;;;1.48;1.13;;;4.50;85.10;;;;;;5026555;28;20053;-76
2022/04/17 01:39:36;;;;;;;1.25;0.98;;;4.30;86.60;;;;;;5032742;28;20041;-77
2022/04/17 01:42:03;;;;;;;2.65;1.38;;;4.30;86.50;;;;;;5034775;28;20025;-75
2022/04/17 01:44:30;;;;;;;1.10;0.82;;;4.40;85.70;;;;;;5029534;28;20033;-77
2022/04/17 01:46:57;;;;;;;1.15;0.90;;;4.40;84.10;;;;;;5020114;28;20048;-77
2022/04/17 01:49:24;;;;;;;3.00;1.08;;;4.50;82.90;;;;;;5017625;28;20436;-76
2022/04/17 01:51:54;;;;;;;1.23;0.98;;;4.60;83.10;;;;;;5030040;28;20041;-76
2022/04/17 01:54:24;;;;;;;1.35;0.85;;;4.80;81.60;;;;;;5034227;28;20037;-76
2022/04/17 01:56:50;;;;;;;5.00;0.73;;;5.20;78.60;;;;;;5002443;28;20038;-76
2022/04/17 01:59:19;;;;;;;2.35;1.02;;;6.00;73.50;;;;;;5031825;28;20041;-76
2022/04/17 02:01:45;;;;;;;2.05;1.15;;;6.00;73.30;;;;;;5035032;28;20305;-76
2022/04/17 02:04:12;;;;;;;1.55;1.13;;;5.80;73.80;;;;;;5030234;28;20470;-76
2022/04/17 02:06:39;;;;;;;2.50;1.25;;;6.00;72.50;;;;;;5039971;28;20042;-76
2022/04/17 02:09:08;;;;;;;2.08;0.90;;;5.90;72.70;;;;;;5037708;28;20455;-77
2022/04/17 02:11:34;;;;;;;1.98;1.23;;;6.00;72.20;;;;;;5018034;28;20034;-77
2022/04/17 02:14:00;;;;;;;1.00;0.73;;;6.10;70.90;;;;;;5014815;28;20079;-77
2022/04/17 02:16:26;;;;;;;2.15;1.20;;;6.00;71.20;;;;;;5034521;28;20049;-75
2022/04/17 02:18:53;;;;;;;4.95;1.13;;;5.90;72.20;;;;;;5035717;28;20025;-76
2022/04/17 02:21:20;;;;;;;1.67;1.33;;;5.90;72.00;;;;;;5036757;28;20045;-75
2022/04/17 02:23:46;;;;;;;1.10;0.98;;;6.10;70.70;;;;;;5036205;28;20048;-77
2022/04/17 02:26:14;;;;;;;1.25;1.05;;;6.10;70.90;;;;;;5015719;28;20033;-77
2022/04/17 02:28:41;;;;;;;1.08;0.98;;;6.00;71.10;;;;;;5037018;28;20115;-76
2022/04/17 02:31:10;;;;;;;1.58;0.82;;;5.90;71.30;;;;;;5036536;28;20037;-77
2022/04/17 02:33:38;;;;;;;1.63;0.90;;;5.80;72.20;;;;;;5017384;28;20045;-77
2022/04/17 02:36:05;;;;;;;3.53;1.10;;;5.70;72.90;;;;;;5034081;28;20037;-76
2022/04/17 02:38:32;;;;;;;1.90;0.98;;;5.60;73.80;;;;;;5039329;28;20032;-76
2022/04/17 02:40:58;;;;;;;9.40;1.00;;;5.40;75.20;;;;;;5032160;28;20038;-76
2022/04/17 02:43:24;;;;;;;1.77;1.10;;;5.20;76.70;;;;;;5018423;28;20055;-76
2022/04/17 02:45:51;;;;;;;1.42;0.93;;;4.90;78.50;;;;;;5035788;28;20030;-76
2022/04/17 02:48:18;;;;;;;0.90;0.70;;;4.80;81.40;;;;;;5032927;28;20037;-76
2022/04/17 02:50:44;;;;;;;1.20;0.90;;;4.50;83.80;;;;;;5012650;28;20482;-77
2022/04/17 02:53:10;;;;;;;2.03;1.00;;;4.30;86.70;;;;;;5043695;28;20028;-77
2022/04/17 02:55:37;;;;;;;1.88;1.05;;;4.10;87.90;;;;;;5026786;28;20049;-76
2022/04/17 02:58:03;;;;;;;1.55;1.23;;;3.90;89.40;;;;;;5020940;28;20034;-76
2022/04/17 03:00:31;;;;;;;1.52;1.27;;;3.80;90.30;;;;;;5029464;28;20030;-76
2022/04/17 03:05:43;;;;;;;2.90;1.25;;;3.70;91.10;;;;;;5026665;28;20410;-77
2022/04/17 03:08:11;;;;;;;1.08;0.98;;;3.60;91.70;;;;;;5033937;28;20072;-77
2022/04/17 03:10:40;;;;;;;3.28;0.98;;;3.50;91.90;;;;;;5018228;28;20037;-76
2022/04/17 03:13:07;;;;;;;3.63;1.30;;;3.40;92.20;;;;;;5017280;28;20398;-76
2022/04/17 03:15:34;;;;;;;1.90;1.13;;;3.40;92.10;;;;;;5012610;28;20411;-76
2022/04/17 03:18:00;;;;;;;1.77;1.33;;;3.30;92.40;;;;;;5033192;28;20064;-76
2022/04/17 03:20:27;;;;;;;5.97;1.23;;;3.20;92.70;;;;;;5015914;28;20101;-76
2022/04/17 03:22:53;;;;;;;1.65;1.15;;;3.10;92.90;;;;;;5015477;28;20041;-76
2022/04/17 03:25:20;;;;;;;1.95;1.08;;;3.10;92.90;;;;;;5014352;28;20041;-76
2022/04/17 03:27:47;;;;;;;1.20;1.00;;;3.30;92.50;;;;;;5011640;28;20404;-77
2022/04/17 03:30:15;;;;;;;1.50;1.20;;;3.40;91.70;;;;;;5011947;28;20037;-76
2022/04/17 03:32:42;;;;;;;2.80;1.52;;;3.60;91.10;;;;;;5012020;28;20046;-76
2022/04/17 03:35:10;;;;;;;1.35;1.20;;;3.70;90.60;;;;;;5011426;28;20040;-76
2022/04/17 03:37:36;;;;;;;1.42;1.08;;;3.70;90.50;;;;;;5013643;28;20056;-76
2022/04/17 03:40:03;;;;;;;1.52;1.00;;;3.70;90.60;;;;;;5011773;28;20042;-76
2022/04/17 03:42:29;;;;;;;1.75;1.27;;;3.50;91.00;;;;;;5012823;28;20038;-76
2022/04/17 03:44:56;;;;;;;2.33;1.15;;;3.40;91.00;;;;;;5012127;28;20045;-76
2022/04/17 03:47:22;;;;;;;1.63;1.38;;;3.30;91.60;;;;;;5011287;28;20068;-76
2022/04/17 03:49:48;;;;;;;3.25;1.50;;;3.20;91.90;;;;;;5007650;28;20038;-76
2022/04/17 03:52:14;;;;;;;1.25;0.95;;;3.20;92.30;;;;;;5012845;28;20036;-76
2022/04/17 03:54:41;;;;;;;2.95;1.48;;;3.20;92.50;;;;;;5010866;28;20050;-76
2022/04/17 03:57:07;;;;;;;1.85;1.38;;;3.10;92.20;;;;;;5012654;28;20037;-76
2022/04/17 03:59:34;;;;;;;2.33;1.35;;;3.00;92.90;;;;;;5009187;28;20046;-76
2022/04/17 04:02:01;;;;;;;1.70;1.52;;;2.80;93.70;;;;;;5013185;28;20038;-76
2022/04/17 04:04:28;;;;;;;1.13;0.98;;;2.60;94.40;;;;;;5006912;28;20038;-75
2022/04/17 04:06:54;;;;;;;3.38;1.45;;;2.40;95.10;;;;;;5007959;28;20395;-77
2022/04/17 04:09:21;;;;;;;1.63;1.35;;;2.30;95.90;;;;;;5010088;28;20037;-77
2022/04/17 04:11:47;;;;;;;2.38;1.65;;;2.10;96.90;;;;;;5013054;28;20038;-77
2022/04/17 04:14:13;;;;;;;1.73;1.40;;;2.10;96.60;;;;;;5006184;28;20049;-78
2022/04/17 04:16:40;;;;;;;3.35;1.67;;;2.40;95.60;;;;;;5027753;28;20049;-77
2022/04/17 04:19:06;;;;;;;1.80;1.27;;;2.80;93.90;;;;;;5013017;28;20486;-77
2022/04/17 04:21:32;;;;;;;2.08;1.80;;;3.40;92.00;;;;;;5012245;28;20025;-78
2022/04/17 04:23:58;;;;;;;1.90;1.23;;;3.80;90.80;;;;;;5010730;28;20057;-77
2022/04/17 04:26:25;;;;;;;1.25;1.15;;;4.00;89.70;;;;;;5010397;28;20041;-77
2022/04/17 04:28:51;;;;;;;2.05;1.45;;;4.10;89.40;;;;;;5026413;28;20049;-78
2022/04/17 04:31:17;;;;;;;3.35;1.40;;;4.00;89.50;;;;;;5013130;28;20398;-78
2022/04/17 04:33:43;;;;;;;3.00;1.88;;;4.00;89.70;;;;;;5031495;28;20048;-78
2022/04/17 04:36:11;;;;;;;1.63;1.42;;;4.00;89.30;;;;;;5010616;28;20037;-78
2022/04/17 04:38:38;;;;;;;2.10;1.20;;;4.10;88.60;;;;;;5027081;28;20048;-78
2022/04/17 04:41:04;;;;;;;1.30;0.98;;;4.10;88.60;;;;;;5028286;28;20038;-77
2022/04/17 04:43:31;;;;;;;2.55;1.30;;;4.00;89.40;;;;;;5027713;28;20022;-77
2022/04/17 04:46:06;;;;;;;3.70;1.63;;;3.80;90.70;;;;;;5032155;28;20026;-77
2022/04/17 04:51:26;;;;;;;1.75;1.15;;;2.80;95.20;;;;;;5031313;28;20034;-77
2022/04/17 04:53:54;;;;;;;2.25;1.23;;;2.40;97.70;;;;;;5012866;28;20037;-78
2022/04/17 04:56:21;;;;;;;1.48;1.23;;;2.30;99.30;;;;;;5031615;28;20029;-77
2022/04/17 04:58:47;;;;;;;1.20;0.98;;;2.10;99.90;;;;;;5031792;28;20044;-77
2022/04/17 05:01:14;;;;;;;2.15;1.27;;;2.10;99.90;;;;;;5031104;28;20032;-78
2022/04/17 05:03:41;;;;;;;6.07;1.63;;;2.10;99.90;;;;;;5030776;28;20041;-78
2022/04/17 05:06:10;;;;;;;2.10;1.38;;;2.10;99.90;;;;;;5030441;28;20038;-77
2022/04/17 05:08:36;;;;;;;3.22;1.88;;;2.20;99.90;;;;;;5030866;28;20036;-78
2022/04/17 05:11:02;;;;;;;1.48;1.38;;;2.20;99.90;;;;;;5031376;28;20030;-76
2022/04/17 05:13:28;;;;;;;1.98;1.27;;;2.70;99.90;;;;;;5014025;28;20390;-75
2022/04/17 05:15:54;;;;;;;1.75;1.52;;;4.00;97.10;;;;;;5025553;28;20052;-74
2022/04/17 05:18:21;;;;;;;1.23;0.98;;;5.40;92.90;;;;;;5013041;28;20046;-75
2022/04/17 05:20:47;;;;;;;1.55;0.85;;;6.50;89.40;;;;;;5032074;28;20037;-75
2022/04/17 05:23:22;;;;;;;2.00;1.25;;;7.50;83.80;;;;;;5031214;28;20033;-76
2022/04/17 05:25:53;;;;;;;1.15;0.82;;;8.50;76.60;;;;;;5031496;28;20414;-75
2022/04/17 05:28:19;;;;;;;1.38;1.02;;;9.30;72.20;;;;;;5031399;28;20390;-75
2022/04/17 05:30:46;;;;;;;1.27;0.93;;;9.50;69.40;;;;;;5031984;28;20033;-75
2022/04/17 05:33:12;;;;;;;1.38;0.93;;;9.20;69.90;;;;;;5031610;28;20034;-77
2022/04/17 05:35:38;;;;;;;1.35;0.85;;;9.40;69.20;;;;;;5029567;28;20490;-75
2022/04/17 05:38:05;;;;;;;1.67;1.00;;;9.40;69.30;;;;;;5017015;28;20425;-75
2022/04/17 05:40:43;;;;;;;1.75;1.10;;;8.70;71.60;;;;;;5034979;28;20041;-75
2022/04/17 05:43:10;;;;;;;1.52;1.15;;;8.20;74.60;;;;;;5031793;28;20467;-75
2022/04/17 05:45:38;;;;;;;0.80;0.73;;;8.10;76.30;;;;;;5034562;28;20499;-75
2022/04/17 05:48:06;;;;;;;1.17;0.93;;;8.70;74.90;;;;;;5035474;28;20030;-76
2022/04/17 05:50:33;;;;;;;1.20;1.10;;;9.30;72.30;;;;;;5035069;28;20029;-75
2022/04/17 05:53:00;;;;;;;1.52;0.98;;;9.40;71.00;;;;;;5026012;28;20048;-75
2022/04/17 05:55:27;;;;;;;2.65;2.35;;;9.60;70.40;;;;;;5046434;28;20037;-76
2022/04/17 05:57:53;;;;;;;1.27;0.90;;;10.00;69.20;;;;;;5033847;28;20490;-75
2022/04/17 06:00:19;;;;;;;1.42;0.90;;;10.40;66.40;;;;;;5034931;28;20459;-76
2022/04/17 06:02:49;;;;;;;0.82;0.82;;;10.90;64.30;;;;;;5035109;28;20025;-75
2022/04/17 06:05:17;;;;;;;1.80;0.70;;;11.40;61.80;;;;;;5016270;28;20041;-77
2022/04/17 06:07:43;;;;;;;1.50;1.20;;;12.10;60.90;;;;;;5017809;28;20394;-76
2022/04/17 06:10:12;;;;;;;1.98;0.80;;;12.70;57.40;;;;;;5034981;28;20057;-75
2022/04/17 06:12:39;;;;;;;1.90;0.98;;;12.40;56.10;;;;;;5000727;28;20048;-76
2022/04/17 06:15:07;;;;;;;1.60;1.00;;;12.20;55.70;;;;;;5027788;28;20037;-77
2022/04/17 06:17:38;;;;;;;2.90;1.20;;;12.40;55.20;;;;;;5014523;28;20034;-78
2022/04/17 06:20:12;;;;;;;3.53;1.10;;;12.60;53.80;;;;;;5014982;28;20234;-78
2022/04/17 06:22:39;;;;;;;1.65;1.27;;;13.50;53.30;;;;;;5034214;28;20033;-78
2022/04/17 06:25:08;;;;;;;2.35;1.23;;;13.50;52.70;;;;;;5030482;28;20037;-75
2022/04/17 06:27:46;;;;;;;3.15;1.30;;;13.50;51.30;;;;;;5026298;28;20053;-75
2022/04/17 06:30:17;;;;;;;1.42;1.23;;;13.60;50.90;;;;;;5032111;28;20037;-77
2022/04/17 06:32:44;;;;;;;2.80;1.20;;;13.80;50.40;;;;;;5029036;28;20042;-75
2022/04/17 06:35:12;;;;;;;1.42;0.77;;;13.80;51.20;;;;;;5027621;28;20478;-75
2022/04/17 06:37:51;;;;;;;1.40;0.85;;;13.80;52.00;;;;;;5027113;28;20025;-75
2022/04/17 06:40:22;;;;;;;2.00;1.20;;;14.40;50.40;;;;;;5040312;28;20037;-76
2022/04/17 06:42:49;;;;;;;4.40;1.20;;;14.10;49.60;;;;;;5029848;28;20037;-75
2022/04/17 06:45:17;;;;;;;2.00;1.20;;;15.30;48.40;;;;;;5032845;28;20052;-75
2022/04/17 06:47:44;;;;;;;2.42;1.30;;;16.10;46.90;;;;;;5033570;28;20386;-75
2022/04/17 06:50:11;;;;;;;1.63;1.05;;;16.20;46.70;;;;;;5011958;28;20071;-75
2022/04/17 06:52:37;;;;;;;2.13;1.27;;;15.80;46.90;;;;;;5014052;28;20398;-75
2022/04/17 06:55:05;;;;;;;1.58;0.80;;;15.70;46.70;;;;;;5033366;28;20037;-75
2022/04/17 06:57:33;;;;;;;1.67;1.00;;;15.40;47.80;;;;;;5032207;28;20390;-75
2022/04/17 07:00:09;;;;;;;2.08;1.15;;;15.20;46.40;;;;;;5030117;28;20060;-75
2022/04/17 07:02:36;;;;;;;1.95;1.02;;;14.90;47.30;;;;;;5015450;28;20032;-75
2022/04/17 07:05:03;;;;;;;1.45;0.93;;;15.20;47.70;;;;;;5031776;28;20033;-74
2022/04/17 07:07:29;;;;;;;3.05;1.00;;;16.30;45.00;;;;;;5030833;28;20048;-75
2022/04/17 07:09:56;;;;;;;1.08;0.82;;;18.10;43.90;;;;;;5033117;28;20029;-75
2022/04/17 07:12:22;;;;;;;2.45;1.10;;;18.90;43.00;;;;;;5033607;28;20380;-76
2022/04/17 07:14:49;;;;;;;1.77;1.15;;;17.70;42.80;;;;;;5032141;28;20060;-76
2022/04/17 07:17:15;;;;;;;0.80;0.80;;;16.90;42.30;;;;;;5030035;28;20037;-75
2022/04/17 07:19:42;;;;;;;2.25;1.27;;;16.10;43.50;;;;;;5016216;28;20037;-75
2022/04/17 07:22:08;;;;;;;1.38;1.05;;;16.50;44.10;;;;;;5031964;28;20036;-75
2022/04/17 07:24:34;;;;;;;2.33;1.20;;;17.30;42.60;;;;;;5028606;28;20037;-75
2022/04/17 07:27:01;;;;;;;2.05;1.17;;;18.50;41.10;;;;;;5031996;28;20041;-76
2022/04/17 07:29:28;;;;;;;3.00;1.33;;;18.60;41.60;;;;;;5025354;28;20053;-74
2022/04/17 07:31:54;;;;;;;1.45;1.05;;;17.90;40.80;;;;;;5033948;28;20029;-75
2022/04/17 07:34:20;;;;;;;1.65;1.25;;;17.80;41.50;;;;;;5031601;28;20479;-75
2022/04/17 07:36:47;;;;;;;1.88;1.23;;;18.30;41.50;;;;;;5016264;28;20395;-75
2022/04/17 07:39:17;;;;;;;1.88;1.30;;;16.60;42.10;;;;;;5033546;28;20025;-76
2022/04/17 07:41:44;;;;;;;;;;;15.80;42.10;;;;;;5030765;28;20034;-75
2022/04/17 07:44:11;;;;;;;2.10;1.23;;;16.40;41.50;;;;;;5027332;28;19910;-75
2022/04/17 07:46:39;;;;;;;2.17;0.95;;;14.50;44.20;;;;;;5014965;28;20041;-75
2022/04/17 07:49:05;;;;;;;1.38;1.20;;;15.40;45.00;;;;;;5031384;28;20041;-75
2022/04/17 07:51:32;;;;;;;1.92;1.17;;;16.20;43.40;;;;;;5029651;28;20037;-75
2022/04/17 07:53:58;;;;;;;4.82;0.90;;;15.50;44.10;;;;;;5027770;28;20029;-75
2022/04/17 07:56:24;;;;;;;1.65;1.20;;;16.40;43.10;;;;;;5030819;28;20036;-75
2022/04/17 07:58:50;;;;;;;1.60;0.90;;;16.70;43.40;;;;;;5035079;28;20037;-75
2022/04/17 08:01:17;;;;;;;1.70;1.00;;;16.60;43.00;;;;;;5031660;28;20021;-76
2022/04/17 08:06:10;;;;;;;1.38;0.85;;;17.60;42.60;;;;;;5031332;28;20044;-75
2022/04/17 08:08:37;;;;;;;2.70;1.20;;;18.20;41.30;;;;;;5026799;28;20370;-76
2022/04/17 08:11:05;;;;;;;3.55;1.35;;;18.30;41.40;;;;;;5032218;28;20385;-76
2022/04/17 08:13:31;;;;;;;3.20;1.40;;;18.50;41.10;;;;;;5033561;28;20384;-76
2022/04/17 08:15:58;;;;;;;7.53;1.58;;;17.30;42.20;;;;;;5032913;28;20033;-76
2022/04/17 08:18:25;;;;;;;2.28;1.42;;;15.60;43.90;;;;;;5031333;28;20085;-76
2022/04/17 08:20:51;;;;;;;1.27;0.90;;;15.50;44.20;;;;;;5032666;28;20034;-76
2022/04/17 08:23:17;;;;;;;1.30;1.10;;;16.90;42.80;;;;;;5026729;28;20034;-76
2022/04/17 08:25:44;;;;;;;1.45;0.95;;;17.20;42.40;;;;;;5027416;28;20030;-76
2022/04/17 08:28:10;;;;;;;2.40;0.90;;;16.30;43.20;;;;;;5028260;28;20386;-75
2022/04/17 08:30:39;;;;;;;1.45;1.00;;;16.80;40.90;;;;;;5032263;28;20025;-76
2022/04/17 08:33:08;;;;;;;1.60;0.80;;;17.50;41.00;;;;;;5025866;28;20036;-78
2022/04/17 08:35:35;;;;;;;2.05;1.15;;;17.30;39.40;;;;;;5032006;28;20104;-76
2022/04/17 08:38:04;;;;;;;1.48;1.00;;;17.80;39.40;;;;;;5032054;28;20532;-76
2022/04/17 08:40:31;;;;;;;1.55;1.20;;;16.60;39.90;;;;;;5032056;28;20040;-75
2022/04/17 08:42:59;;;;;;;1.95;0.98;;;16.10;40.10;;;;;;5031918;28;20025;-77
2022/04/17 08:45:26;;;;;;;2.30;1.15;;;15.60;40.10;;;;;;5031636;28;20037;-76
2022/04/17 08:47:54;;;;;;;2.03;1.02;;;15.10;41.00;;;;;;5030811;28;20021;-76
2022/04/17 08:50:21;;;;;;;1.45;0.77;;;15.50;41.00;;;;;;5014401;28;20029;-75
2022/04/17 08:52:50;;;;;;;3.97;0.73;;;16.50;40.90;;;;;;5014641;28;20474;-75
2022/04/17 08:55:17;;;;;;;1.42;0.80;;;16.90;39.90;;;;;;5025799;28;20060;-76
2022/04/17 08:57:44;;;;;;;2.92;0.82;;;16.20;39.10;;;;;;5014159;28;20037;-77
2022/04/17 09:00:14;;;;;;;1.10;0.82;;;15.70;39.60;;;;;;5032300;28;20040;-77
2022/04/17 09:02:40;;;;;;;2.03;1.13;;;16.70;39.40;;;;;;5029939;28;20073;-77
2022/04/17 09:05:09;;;;;;;3.25;1.08;;;16.50;39.70;;;;;;5030035;28;20374;-77
2022/04/17 09:07:45;;;;;;;0.60;0.60;;;16.50;39.70;;;;;;5023354;28;20396;-77
2022/04/17 09:10:22;;;;;;;0.60;0.60;;;16.10;40.10;;;;;;5031722;28;20033;-76
2022/04/17 09:12:52;;;;;;;0.80;0.70;;;16.10;39.70;;;;;;5030759;28;20021;-75
2022/04/17 09:15:23;;;;;;;0.98;0.70;;;16.10;40.20;;;;;;5012748;28;20044;-75
2022/04/17 09:17:50;;;;;;;1.42;0.95;;;16.70;40.30;;;;;;5031734;28;20482;-76
2022/04/17 09:20:24;;;;;;;1.50;0.77;;;17.50;39.20;;;;;;5031613;28;20029;-77
2022/04/17 09:22:53;;;;;;;1.73;1.00;;;17.70;39.70;;;;;;5023452;28;20517;-77
2022/04/17 09:25:24;;;;;;;3.88;0.88;;;18.30;39.60;;;;;;5030531;28;20045;-77
2022/04/17 09:28:01;;;;;;;3.95;1.05;;;18.10;38.80;;;;;;5011447;28;20065;-78
2022/04/17 09:30:46;;;;;;;1.63;0.90;;;17.10;39.60;;;;;;5014573;28;20049;-80
2022/04/17 09:33:13;;;;;;;1.58;1.05;;;17.40;39.40;;;;;;5007687;28;20041;-80
2022/04/17 09:35:52;;;;;;;0.88;0.80;;;17.60;39.50;;;;;;5018481;28;20049;-79
2022/04/17 09:38:23;;;;;;;1.67;1.00;;;17.60;39.50;;;;;;5011823;28;20045;-80
2022/04/17 09:40:49;;;;;;;1.58;0.63;;;16.80;39.30;;;;;;5012751;28;20041;-80
2022/04/17 09:43:19;;;;;;;1.33;0.80;;;16.50;40.10;;;;;;5010685;28;20387;-80
2022/04/17 09:46:02;;;;;;;1.40;0.70;;;16.70;39.70;;;;;;5012487;28;20041;-80
2022/04/17 09:48:31;;;;;;;1.48;0.80;;;18.90;39.30;;;;;;5009888;28;20026;-80
2022/04/17 09:50:57;;;;;;;1.38;0.70;;;18.60;38.60;;;;;;5011323;28;20038;-79
2022/04/17 09:53:37;;;;;;;4.28;0.90;;;16.90;39.50;;;;;;5006063;28;20038;-80
2022/04/17 09:56:08;;;;;;;0.83;0.70;;;16.20;40.10;;;;;;5005964;28;20037;-80
2022/04/17 09:58:42;;;;;;;0.88;0.68;;;16.20;40.40;;;;;;5000861;28;20057;-80
2022/04/17 10:01:09;;;;;;;1.42;0.85;;;16.00;40.00;;;;;;5006006;28;20026;-80
2022/04/17 10:03:38;;;;;;;1.75;0.70;;;15.80;40.20;;;;;;5010258;28;20274;-79
2022/04/17 10:06:06;;;;;;;1.13;0.70;;;15.50;41.00;;;;;;5008023;28;20046;-80
2022/04/17 10:08:33;;;;;;;1.65;0.70;;;15.90;39.80;;;;;;5010852;28;20033;-80
2022/04/17 10:11:01;;;;;;;0.90;0.70;;;15.00;40.40;;;;;;4996526;28;20042;-79
2022/04/17 10:13:30;;;;;;;1.45;0.70;;;14.60;40.70;;;;;;5007108;28;20033;-79
2022/04/17 10:15:59;;;;;;;2.58;0.70;;;14.50;41.50;;;;;;5014131;28;20053;-79
2022/04/17 10:18:31;;;;;;;1.52;1.10;;;14.50;41.10;;;;;;5009205;28;20079;-83
2022/04/17 10:20:58;;;;;;;1.65;0.77;;;14.50;41.50;;;;;;5009153;28;20038;-80
2022/04/17 10:23:27;;;;;;;1.80;0.77;;;14.60;41.70;;;;;;5013429;28;20882;-80
2022/04/17 10:25:57;;;;;;;1.08;0.68;;;14.40;40.80;;;;;;5011893;28;20105;-80
2022/04/17 10:28:27;;;;;;;0.95;0.60;;;14.50;40.60;;;;;;5025050;28;20474;-80
2022/04/17 10:31:19;;;;;;;2.42;1.00;;;14.60;41.30;;;;;;5030349;28;20040;-80
2022/04/17 10:34:18;;;;;;;1.60;0.93;;;15.00;41.60;;;;;;5033437;28;20033;-81
2022/04/17 10:37:01;;;;;;;2.13;1.10;;;15.20;41.20;;;;;;5034631;28;20045;-80
2022/04/17 10:39:38;;;;;;;1.42;0.85;;;15.30;41.70;;;;;;5016498;28;20029;-82
2022/04/17 10:42:07;;;;;;;1.58;1.00;;;15.40;41.00;;;;;;5016918;28;20038;-80
2022/04/17 10:44:38;;;;;;;0.77;0.68;;;15.30;40.60;;;;;;5032915;28;20100;-80
2022/04/17 10:47:05;;;;;;;2.05;0.60;;;15.10;40.30;;;;;;5034706;28;20045;-81
2022/04/17 10:49:32;;;;;;;1.73;0.82;;;15.30;40.20;;;;;;5034031;28;20038;-80
2022/04/17 10:51:59;;;;;;;1.60;0.70;;;15.40;40.60;;;;;;5034811;28;20033;-83
2022/04/17 10:54:45;;;;;;;1.48;0.73;;;15.40;39.90;;;;;;5031121;28;20042;-81
2022/04/17 10:57:12;;;;;;;0.85;0.50;;;15.30;40.30;;;;;;5034232;28;20391;-80
2022/04/17 10:59:40;;;;;;;1.10;0.70;;;15.50;40.90;;;;;;5033899;28;20463;-81
2022/04/17 11:02:10;;;;;;;1.13;0.57;;;15.20;39.60;;;;;;5023711;28;20034;-81
2022/04/17 11:04:50;;;;;;;0.80;0.50;;;15.10;38.90;;;;;;5029614;28;20037;-82
2022/04/17 11:07:16;;;;;;;1.33;0.80;;;15.50;39.40;;;;;;5032168;28;20063;-81
2022/04/17 11:09:46;;;;;;;0.85;0.70;;;15.50;39.30;;;;;;5033054;28;20438;-80
2022/04/17 11:12:18;;;;;;;0.73;0.50;;;15.60;39.10;;;;;;5030498;28;20033;-80
2022/04/17 11:15:02;;;;;;;2.38;0.75;;;15.90;38.30;;;;;;5033144;28;20650;-81
2022/04/17 11:17:29;;;;;;;1.40;0.57;;;15.80;39.10;;;;;;5013009;28;20068;-80
2022/04/17 11:19:59;;;;;;;1.42;0.70;;;15.80;39.30;;;;;;5033638;28;20490;-80
2022/04/17 11:22:27;;;;;;;;;;;15.90;39.50;;;;;;5034448;28;20052;-80
2022/04/17 11:25:02;;;;;;;3.45;0.63;;;15.80;38.80;;;;;;5033446;28;19916;-81
2022/04/17 11:27:31;;;;;;;1.13;0.50;;;15.70;38.10;;;;;;5033631;28;20586;-81
2022/04/17 11:30:02;;;;;;;2.50;0.98;;;15.80;37.60;;;;;;5033514;28;20037;-81
2022/04/17 11:32:31;;;;;;;;;;;15.80;37.30;;;;;;5033733;28;20037;-80
2022/04/17 11:35:02;;;;;;;1.15;0.50;;;15.70;37.80;;;;;;5030893;28;19909;-82
2022/04/17 11:37:30;;;;;;;0.98;0.60;;;15.40;38.10;;;;;;5033188;28;20037;-81
2022/04/17 11:40:19;;;;;;;0.88;0.70;;;15.60;38.00;;;;;;5011629;28;20025;-81
2022/04/17 11:42:48;;;;;;;1.33;0.50;;;16.00;37.90;;;;;;5021125;28;20426;-81
2022/04/17 11:45:20;;;;;;;5.78;0.85;;;16.20;38.40;;;;;;5015269;28;20021;-80
2022/04/17 11:47:47;;;;;;;1.63;0.68;;;16.00;38.00;;;;;;5033425;28;20037;-81
2022/04/17 11:50:23;;;;;;;1.42;0.82;;;15.70;38.60;;;;;;5033040;28;20036;-80
2022/04/17 11:52:50;;;;;;;1.33;0.80;;;15.80;39.20;;;;;;5032219;28;20029;-80
2022/04/17 11:55:22;;;;;;;3.80;0.85;;;16.10;38.50;;;;;;5028508;28;20041;-81
2022/04/17 11:57:48;;;;;;;5.43;0.80;;;15.80;38.50;;;;;;5033817;28;20044;-80
2022/04/17 12:00:15;;;;;;;1.90;0.60;;;15.90;38.70;;;;;;5028938;28;20029;-78
2022/04/17 12:02:41;;;;;;;1.27;0.70;;;16.10;39.30;;;;;;5030333;28;20034;-80
2022/04/17 12:05:10;;;;;;;0.63;0.40;;;16.20;38.40;;;;;;5026978;28;20032;-81
2022/04/17 12:07:36;;;;;;;1.95;0.70;;;16.00;38.40;;;;;;5024823;28;20390;-80
2022/04/17 12:10:13;;;;;;;8.88;0.82;;;16.20;38.70;;;;;;5032781;28;20037;-80
2022/04/17 12:12:45;;;;;;;1.63;0.63;;;16.10;37.50;;;;;;5025791;28;20525;-81
2022/04/17 12:15:13;;;;;;;1.42;0.75;;;16.50;38.00;;;;;;5029244;28;20470;-80
2022/04/17 12:17:40;;;;;;;2.40;1.05;;;16.30;37.60;;;;;;5032562;28;20037;-80
2022/04/17 12:20:08;;;;;;;1.52;0.70;;;16.20;38.30;;;;;;5032225;28;20455;-80
2022/04/17 12:22:35;;;;;;;2.35;0.55;;;16.00;37.80;;;;;;5032089;28;20025;-80
2022/04/17 12:25:03;;;;;;;0.85;0.55;;;16.50;38.30;;;;;;5025805;28;20624;-80
2022/04/17 12:27:29;;;;;;;0.82;0.57;;;16.20;37.80;;;;;;5032346;28;20489;-80
2022/04/17 12:29:57;;;;;;;4.28;0.77;;;16.50;37.80;;;;;;5014348;28;20395;-80
2022/04/17 12:32:24;;;;;;;1.85;0.70;;;16.70;37.70;;;;;;5021362;28;20069;-79
2022/04/17 12:35:02;;;;;;;1.92;0.75;;;16.50;37.80;;;;;;5030932;28;20041;-81
2022/04/17 12:37:32;;;;;;;1.35;0.70;;;16.60;37.60;;;;;;5032272;28;20148;-81
2022/04/17 12:40:11;;;;;;;1.13;0.50;;;16.40;38.10;;;;;;5029968;28;20049;-81
2022/04/17 12:42:38;;;;;;;1.85;0.68;;;16.20;37.80;;;;;;5031755;28;20030;-80
2022/04/17 12:45:07;;;;;;;0.82;0.55;;;16.10;38.40;;;;;;5029631;28;20033;-81
2022/04/17 12:47:36;;;;;;;1.75;0.50;;;16.70;38.10;;;;;;5031964;28;20041;-81
2022/04/17 12:50:07;;;;;;;0.68;0.55;;;17.10;37.40;;;;;;5014426;28;20370;-81
2022/04/17 12:52:34;;;;;;;3.58;0.88;;;16.90;37.30;;;;;;5013739;28;20034;-80
2022/04/17 12:55:10;;;;;;;1.60;0.38;;;16.50;37.10;;;;;;5031544;28;20029;-80
2022/04/17 12:57:37;;;;;;;0.70;0.50;;;16.40;37.30;;;;;;5031904;28;20042;-81
2022/04/17 13:00:30;;;;;;;0.95;0.47;;;16.60;38.20;;;;;;5013910;28;20037;-82
2022/04/17 13:03:16;;;;;;;1.00;0.55;;;16.60;35.70;;;;;;5026935;28;20046;-81
2022/04/17 13:05:57;;;;;;;1.83;0.88;;;16.60;36.50;;;;;;5031696;28;20052;-80
2022/04/17 13:08:23;;;;;;;0.88;0.50;;;16.80;36.60;;;;;;5013502;28;20045;-80
2022/04/17 13:10:49;;;;;;;0.95;0.73;;;16.70;36.50;;;;;;5031561;28;20052;-80